sensor_id;sensor_type;location;lat;lon;timestamp;P1;durP1;ratioP1;P2;durP2;ratioP2
75649;SDS011;64245;51.282;22.494;2024-03-25T00:00:13;8.30;;;4.30;;
75649;SDS011;64245;51.282;22.494;2024-03-25T00:02:59;14.65;;;4.78;;
75649;SDS011;64245;51.282;22.494;2024-03-25T00:05:26;9.57;;;4.75;;
75649;SDS011;64245;51.282;22.494;2024-03-25T00:07:52;6.97;;;4.32;;
75649;SDS011;64245;51.282;22.494;2024-03-25T00:10:18;11.48;;;4.07;;
75649;SDS011;64245;51.282;22.494;2024-03-25T00:12:46;17.65;;;5.28;;
75649;SDS011;64245;51.282;22.494;2024-03-25T00:15:13;13.43;;;5.03;;
75649;SDS011;64245;51.282;22.494;2024-03-25T00:17:39;8.07;;;5.70;;
75649;SDS011;64245;51.282;22.494;2024-03-25T00:20:05;13.52;;;6.93;;
75649;SDS011;64245;51.282;22.494;2024-03-25T00:22:34;6.43;;;4.28;;
75649;SDS011;64245;51.282;22.494;2024-03-25T00:25:00;5.97;;;4.35;;
75649;SDS011;64245;51.282;22.494;2024-03-25T00:27:26;6.35;;;4.32;;
75649;SDS011;64245;51.282;22.494;2024-03-25T00:29:52;4.35;;;3.42;;
75649;SDS011;64245;51.282;22.494;2024-03-25T00:32:18;7.68;;;4.97;;
75649;SDS011;64245;51.282;22.494;2024-03-25T00:34:44;3.50;;;2.72;;
75649;SDS011;64245;51.282;22.494;2024-03-25T00:37:10;5.85;;;3.00;;
75649;SDS011;64245;51.282;22.494;2024-03-25T00:39:36;2.42;;;2.17;;
75649;SDS011;64245;51.282;22.494;2024-03-25T00:42:01;4.85;;;2.95;;
75649;SDS011;64245;51.282;22.494;2024-03-25T00:44:27;10.50;;;3.75;;
75649;SDS011;64245;51.282;22.494;2024-03-25T00:46:53;5.13;;;3.38;;
75649;SDS011;64245;51.282;22.494;2024-03-25T00:49:19;9.65;;;4.45;;
75649;SDS011;64245;51.282;22.494;2024-03-25T00:51:46;6.85;;;4.90;;
75649;SDS011;64245;51.282;22.494;2024-03-25T00:54:12;7.97;;;3.75;;
75649;SDS011;64245;51.282;22.494;2024-03-25T00:56:38;3.50;;;3.20;;
75649;SDS011;64245;51.282;22.494;2024-03-25T00:59:04;3.25;;;2.95;;
75649;SDS011;64245;51.282;22.494;2024-03-25T01:01:32;4.57;;;3.17;;
75649;SDS011;64245;51.282;22.494;2024-03-25T01:03:58;7.13;;;4.03;;
75649;SDS011;64245;51.282;22.494;2024-03-25T01:06:24;6.22;;;2.65;;
75649;SDS011;64245;51.282;22.494;2024-03-25T01:08:50;5.85;;;4.28;;
75649;SDS011;64245;51.282;22.494;2024-03-25T01:11:16;8.50;;;3.63;;
75649;SDS011;64245;51.282;22.494;2024-03-25T01:13:43;7.00;;;3.40;;
75649;SDS011;64245;51.282;22.494;2024-03-25T01:16:09;5.85;;;2.08;;
75649;SDS011;64245;51.282;22.494;2024-03-25T01:18:37;10.85;;;3.00;;
75649;SDS011;64245;51.282;22.494;2024-03-25T01:21:03;3.65;;;2.63;;
75649;SDS011;64245;51.282;22.494;2024-03-25T01:23:30;7.30;;;3.33;;
75649;SDS011;64245;51.282;22.494;2024-03-25T01:25:56;7.63;;;4.07;;
75649;SDS011;64245;51.282;22.494;2024-03-25T01:28:22;3.85;;;2.10;;
75649;SDS011;64245;51.282;22.494;2024-03-25T01:30:48;5.53;;;2.67;;
75649;SDS011;64245;51.282;22.494;2024-03-25T01:33:14;5.88;;;3.63;;
75649;SDS011;64245;51.282;22.494;2024-03-25T01:35:40;3.97;;;1.77;;
75649;SDS011;64245;51.282;22.494;2024-03-25T01:38:07;5.53;;;3.42;;
75649;SDS011;64245;51.282;22.494;2024-03-25T01:40:33;5.50;;;2.47;;
75649;SDS011;64245;51.282;22.494;2024-03-25T01:43:00;2.92;;;2.45;;
75649;SDS011;64245;51.282;22.494;2024-03-25T01:45:31;7.43;;;3.53;;
75649;SDS011;64245;51.282;22.494;2024-03-25T01:48:01;3.58;;;2.58;;
75649;SDS011;64245;51.282;22.494;2024-03-25T01:50:28;4.65;;;2.08;;
75649;SDS011;64245;51.282;22.494;2024-03-25T01:52:57;3.55;;;2.85;;
75649;SDS011;64245;51.282;22.494;2024-03-25T01:55:26;9.27;;;3.75;;
75649;SDS011;64245;51.282;22.494;2024-03-25T01:57:54;5.40;;;2.47;;
75649;SDS011;64245;51.282;22.494;2024-03-25T02:00:19;3.17;;;2.83;;
75649;SDS011;64245;51.282;22.494;2024-03-25T02:02:47;3.95;;;2.85;;
75649;SDS011;64245;51.282;22.494;2024-03-25T02:05:14;12.18;;;2.47;;
75649;SDS011;64245;51.282;22.494;2024-03-25T02:07:41;4.32;;;3.90;;
75649;SDS011;64245;51.282;22.494;2024-03-25T02:10:08;8.15;;;3.13;;
75649;SDS011;64245;51.282;22.494;2024-03-25T02:12:36;2.63;;;2.42;;
75649;SDS011;64245;51.282;22.494;2024-03-25T02:15:04;3.72;;;3.28;;
75649;SDS011;64245;51.282;22.494;2024-03-25T02:17:31;6.07;;;3.47;;
75649;SDS011;64245;51.282;22.494;2024-03-25T02:19:56;7.05;;;3.95;;
75649;SDS011;64245;51.282;22.494;2024-03-25T02:22:22;4.40;;;3.33;;
75649;SDS011;64245;51.282;22.494;2024-03-25T02:24:49;3.10;;;2.17;;
75649;SDS011;64245;51.282;22.494;2024-03-25T02:27:18;4.03;;;2.65;;
75649;SDS011;64245;51.282;22.494;2024-03-25T02:29:44;4.07;;;2.13;;
75649;SDS011;64245;51.282;22.494;2024-03-25T02:32:10;8.27;;;2.75;;
75649;SDS011;64245;51.282;22.494;2024-03-25T02:34:37;3.45;;;1.95;;
75649;SDS011;64245;51.282;22.494;2024-03-25T02:37:04;6.72;;;4.10;;
75649;SDS011;64245;51.282;22.494;2024-03-25T02:39:31;4.45;;;2.33;;
75649;SDS011;64245;51.282;22.494;2024-03-25T02:44:25;3.83;;;2.03;;
75649;SDS011;64245;51.282;22.494;2024-03-25T02:46:52;5.55;;;3.97;;
75649;SDS011;64245;51.282;22.494;2024-03-25T02:49:18;7.97;;;2.80;;
75649;SDS011;64245;51.282;22.494;2024-03-25T02:51:44;7.30;;;3.20;;
75649;SDS011;64245;51.282;22.494;2024-03-25T02:54:10;3.80;;;2.33;;
75649;SDS011;64245;51.282;22.494;2024-03-25T02:56:36;2.05;;;1.90;;
75649;SDS011;64245;51.282;22.494;2024-03-25T02:59:02;5.15;;;3.20;;
75649;SDS011;64245;51.282;22.494;2024-03-25T03:01:28;6.88;;;2.95;;
75649;SDS011;64245;51.282;22.494;2024-03-25T03:03:54;4.10;;;2.67;;
75649;SDS011;64245;51.282;22.494;2024-03-25T03:06:20;8.15;;;3.42;;
75649;SDS011;64245;51.282;22.494;2024-03-25T03:08:46;4.40;;;3.13;;
75649;SDS011;64245;51.282;22.494;2024-03-25T03:11:12;4.60;;;2.17;;
75649;SDS011;64245;51.282;22.494;2024-03-25T03:13:38;4.63;;;3.08;;
75649;SDS011;64245;51.282;22.494;2024-03-25T03:16:04;3.00;;;2.47;;
75649;SDS011;64245;51.282;22.494;2024-03-25T03:18:30;3.53;;;2.78;;
75649;SDS011;64245;51.282;22.494;2024-03-25T03:20:56;3.67;;;3.38;;
75649;SDS011;64245;51.282;22.494;2024-03-25T03:23:22;2.00;;;1.77;;
75649;SDS011;64245;51.282;22.494;2024-03-25T03:25:49;6.18;;;3.47;;
75649;SDS011;64245;51.282;22.494;2024-03-25T03:28:15;5.85;;;3.15;;
75649;SDS011;64245;51.282;22.494;2024-03-25T03:30:43;3.17;;;2.63;;
75649;SDS011;64245;51.282;22.494;2024-03-25T03:33:09;4.28;;;2.45;;
75649;SDS011;64245;51.282;22.494;2024-03-25T03:35:35;5.57;;;2.97;;
75649;SDS011;64245;51.282;22.494;2024-03-25T03:38:01;3.72;;;3.00;;
75649;SDS011;64245;51.282;22.494;2024-03-25T03:40:28;7.50;;;3.28;;
75649;SDS011;64245;51.282;22.494;2024-03-25T03:42:55;4.82;;;3.55;;
75649;SDS011;64245;51.282;22.494;2024-03-25T03:45:23;2.53;;;2.10;;
75649;SDS011;64245;51.282;22.494;2024-03-25T03:47:50;4.00;;;3.15;;
75649;SDS011;64245;51.282;22.494;2024-03-25T03:50:16;3.08;;;2.85;;
75649;SDS011;64245;51.282;22.494;2024-03-25T03:52:42;4.15;;;2.92;;
75649;SDS011;64245;51.282;22.494;2024-03-25T03:55:08;4.50;;;2.97;;
75649;SDS011;64245;51.282;22.494;2024-03-25T03:57:35;3.72;;;2.53;;
75649;SDS011;64245;51.282;22.494;2024-03-25T04:00:01;8.60;;;4.38;;
75649;SDS011;64245;51.282;22.494;2024-03-25T04:02:27;5.80;;;3.17;;
75649;SDS011;64245;51.282;22.494;2024-03-25T04:04:54;7.38;;;4.82;;
75649;SDS011;64245;51.282;22.494;2024-03-25T04:07:20;5.32;;;3.17;;
75649;SDS011;64245;51.282;22.494;2024-03-25T04:09:55;6.38;;;2.90;;
75649;SDS011;64245;51.282;22.494;2024-03-25T04:12:20;6.03;;;3.95;;
75649;SDS011;64245;51.282;22.494;2024-03-25T04:14:47;3.95;;;2.85;;
75649;SDS011;64245;51.282;22.494;2024-03-25T04:17:14;2.85;;;1.80;;
75649;SDS011;64245;51.282;22.494;2024-03-25T04:19:41;4.55;;;3.75;;
75649;SDS011;64245;51.282;22.494;2024-03-25T04:22:07;4.38;;;3.35;;
75649;SDS011;64245;51.282;22.494;2024-03-25T04:24:33;5.65;;;3.97;;
75649;SDS011;64245;51.282;22.494;2024-03-25T04:27:00;4.40;;;2.58;;
75649;SDS011;64245;51.282;22.494;2024-03-25T04:29:26;3.60;;;2.28;;
75649;SDS011;64245;51.282;22.494;2024-03-25T04:31:51;12.50;;;4.55;;
75649;SDS011;64245;51.282;22.494;2024-03-25T04:34:17;6.13;;;3.53;;
75649;SDS011;64245;51.282;22.494;2024-03-25T04:36:44;4.70;;;4.30;;
75649;SDS011;64245;51.282;22.494;2024-03-25T04:39:10;5.82;;;2.47;;
75649;SDS011;64245;51.282;22.494;2024-03-25T04:41:37;4.05;;;3.10;;
75649;SDS011;64245;51.282;22.494;2024-03-25T04:44:03;3.90;;;2.53;;
75649;SDS011;64245;51.282;22.494;2024-03-25T04:46:28;4.47;;;2.65;;
75649;SDS011;64245;51.282;22.494;2024-03-25T04:48:54;4.10;;;2.67;;
75649;SDS011;64245;51.282;22.494;2024-03-25T04:51:20;8.13;;;3.22;;
75649;SDS011;64245;51.282;22.494;2024-03-25T04:53:47;6.65;;;3.85;;
75649;SDS011;64245;51.282;22.494;2024-03-25T04:56:12;6.95;;;4.13;;
75649;SDS011;64245;51.282;22.494;2024-03-25T04:58:39;4.40;;;3.55;;
75649;SDS011;64245;51.282;22.494;2024-03-25T05:01:04;3.00;;;2.72;;
75649;SDS011;64245;51.282;22.494;2024-03-25T05:03:30;7.68;;;3.92;;
75649;SDS011;64245;51.282;22.494;2024-03-25T05:05:56;11.20;;;4.35;;
75649;SDS011;64245;51.282;22.494;2024-03-25T05:08:22;4.45;;;3.75;;
75649;SDS011;64245;51.282;22.494;2024-03-25T05:10:49;8.52;;;3.90;;
75649;SDS011;64245;51.282;22.494;2024-03-25T05:13:15;7.55;;;2.95;;
75649;SDS011;64245;51.282;22.494;2024-03-25T05:15:41;6.38;;;3.85;;
75649;SDS011;64245;51.282;22.494;2024-03-25T05:18:16;4.65;;;4.20;;
75649;SDS011;64245;51.282;22.494;2024-03-25T05:20:43;5.10;;;2.85;;
75649;SDS011;64245;51.282;22.494;2024-03-25T05:23:09;6.50;;;3.65;;
75649;SDS011;64245;51.282;22.494;2024-03-25T05:25:35;7.00;;;3.25;;
75649;SDS011;64245;51.282;22.494;2024-03-25T05:28:02;8.93;;;4.97;;
75649;SDS011;64245;51.282;22.494;2024-03-25T05:30:28;6.22;;;4.93;;
75649;SDS011;64245;51.282;22.494;2024-03-25T05:32:54;5.25;;;3.72;;
75649;SDS011;64245;51.282;22.494;2024-03-25T05:35:20;3.33;;;3.00;;
75649;SDS011;64245;51.282;22.494;2024-03-25T05:37:47;5.10;;;3.05;;
75649;SDS011;64245;51.282;22.494;2024-03-25T05:40:13;4.97;;;3.65;;
75649;SDS011;64245;51.282;22.494;2024-03-25T05:42:44;4.03;;;3.38;;
75649;SDS011;64245;51.282;22.494;2024-03-25T05:45:10;6.47;;;4.72;;
75649;SDS011;64245;51.282;22.494;2024-03-25T05:47:36;8.05;;;4.97;;
75649;SDS011;64245;51.282;22.494;2024-03-25T05:50:02;11.52;;;4.68;;
75649;SDS011;64245;51.282;22.494;2024-03-25T05:52:31;6.82;;;3.78;;
75649;SDS011;64245;51.282;22.494;2024-03-25T05:54:58;8.43;;;4.85;;
75649;SDS011;64245;51.282;22.494;2024-03-25T05:57:25;7.22;;;4.18;;
75649;SDS011;64245;51.282;22.494;2024-03-25T05:59:50;7.45;;;3.90;;
75649;SDS011;64245;51.282;22.494;2024-03-25T06:02:16;8.23;;;5.45;;
75649;SDS011;64245;51.282;22.494;2024-03-25T06:04:42;4.00;;;2.90;;
75649;SDS011;64245;51.282;22.494;2024-03-25T06:07:09;9.43;;;2.67;;
75649;SDS011;64245;51.282;22.494;2024-03-25T06:09:35;8.98;;;4.30;;
75649;SDS011;64245;51.282;22.494;2024-03-25T06:12:01;7.43;;;4.53;;
75649;SDS011;64245;51.282;22.494;2024-03-25T06:14:28;7.80;;;4.15;;
75649;SDS011;64245;51.282;22.494;2024-03-25T06:16:54;6.47;;;3.78;;
75649;SDS011;64245;51.282;22.494;2024-03-25T06:19:20;9.23;;;6.07;;
75649;SDS011;64245;51.282;22.494;2024-03-25T06:21:46;6.40;;;4.80;;
75649;SDS011;64245;51.282;22.494;2024-03-25T06:24:12;6.97;;;4.65;;
75649;SDS011;64245;51.282;22.494;2024-03-25T06:26:38;5.32;;;3.40;;
75649;SDS011;64245;51.282;22.494;2024-03-25T06:29:04;8.48;;;4.57;;
75649;SDS011;64245;51.282;22.494;2024-03-25T06:31:30;7.28;;;4.22;;
75649;SDS011;64245;51.282;22.494;2024-03-25T06:34:15;14.35;;;3.60;;
75649;SDS011;64245;51.282;22.494;2024-03-25T06:39:10;7.88;;;5.10;;
75649;SDS011;64245;51.282;22.494;2024-03-25T06:41:37;5.50;;;3.55;;
75649;SDS011;64245;51.282;22.494;2024-03-25T06:44:02;4.88;;;3.53;;
75649;SDS011;64245;51.282;22.494;2024-03-25T06:46:29;10.27;;;4.70;;
75649;SDS011;64245;51.282;22.494;2024-03-25T06:48:55;11.32;;;6.05;;
75649;SDS011;64245;51.282;22.494;2024-03-25T06:51:21;9.38;;;5.32;;
75649;SDS011;64245;51.282;22.494;2024-03-25T06:53:47;8.02;;;4.80;;
75649;SDS011;64245;51.282;22.494;2024-03-25T06:56:13;6.22;;;5.20;;
75649;SDS011;64245;51.282;22.494;2024-03-25T06:58:38;9.02;;;3.47;;
75649;SDS011;64245;51.282;22.494;2024-03-25T07:01:05;6.97;;;3.88;;
75649;SDS011;64245;51.282;22.494;2024-03-25T07:03:32;8.95;;;4.70;;
75649;SDS011;64245;51.282;22.494;2024-03-25T07:06:00;5.70;;;3.00;;
75649;SDS011;64245;51.282;22.494;2024-03-25T07:08:26;7.38;;;4.15;;
75649;SDS011;64245;51.282;22.494;2024-03-25T07:10:59;6.95;;;3.75;;
75649;SDS011;64245;51.282;22.494;2024-03-25T07:13:25;3.42;;;2.63;;
75649;SDS011;64245;51.282;22.494;2024-03-25T07:15:51;8.52;;;4.03;;
75649;SDS011;64245;51.282;22.494;2024-03-25T07:18:16;6.47;;;3.80;;
75649;SDS011;64245;51.282;22.494;2024-03-25T07:20:43;1.90;;;1.80;;
75649;SDS011;64245;51.282;22.494;2024-03-25T07:23:09;8.38;;;4.35;;
75649;SDS011;64245;51.282;22.494;2024-03-25T07:25:36;5.63;;;3.58;;
75649;SDS011;64245;51.282;22.494;2024-03-25T07:28:02;5.05;;;3.83;;
75649;SDS011;64245;51.282;22.494;2024-03-25T07:30:28;6.97;;;3.78;;
75649;SDS011;64245;51.282;22.494;2024-03-25T07:32:58;7.38;;;3.42;;
75649;SDS011;64245;51.282;22.494;2024-03-25T07:35:24;8.80;;;4.15;;
75649;SDS011;64245;51.282;22.494;2024-03-25T07:37:50;4.93;;;3.55;;
75649;SDS011;64245;51.282;22.494;2024-03-25T07:40:17;5.18;;;2.92;;
75649;SDS011;64245;51.282;22.494;2024-03-25T07:42:43;7.63;;;2.90;;
75649;SDS011;64245;51.282;22.494;2024-03-25T07:45:10;11.13;;;3.50;;
75649;SDS011;64245;51.282;22.494;2024-03-25T07:47:36;7.50;;;3.45;;
75649;SDS011;64245;51.282;22.494;2024-03-25T07:50:02;6.10;;;3.65;;
75649;SDS011;64245;51.282;22.494;2024-03-25T07:52:29;7.15;;;2.83;;
75649;SDS011;64245;51.282;22.494;2024-03-25T07:54:55;2.47;;;1.25;;
75649;SDS011;64245;51.282;22.494;2024-03-25T07:57:21;4.72;;;3.38;;
75649;SDS011;64245;51.282;22.494;2024-03-25T07:59:47;6.90;;;3.42;;
75649;SDS011;64245;51.282;22.494;2024-03-25T08:02:13;7.28;;;3.20;;
75649;SDS011;64245;51.282;22.494;2024-03-25T08:04:39;10.00;;;4.00;;
75649;SDS011;64245;51.282;22.494;2024-03-25T08:07:05;5.75;;;3.08;;
75649;SDS011;64245;51.282;22.494;2024-03-25T08:09:31;5.78;;;3.60;;
75649;SDS011;64245;51.282;22.494;2024-03-25T08:11:57;4.85;;;2.85;;
75649;SDS011;64245;51.282;22.494;2024-03-25T08:14:22;3.22;;;2.42;;
75649;SDS011;64245;51.282;22.494;2024-03-25T08:16:49;7.22;;;3.72;;
75649;SDS011;64245;51.282;22.494;2024-03-25T08:19:15;7.50;;;3.80;;
75649;SDS011;64245;51.282;22.494;2024-03-25T08:21:41;6.88;;;3.20;;
75649;SDS011;64245;51.282;22.494;2024-03-25T08:24:06;5.85;;;3.50;;
75649;SDS011;64245;51.282;22.494;2024-03-25T08:26:33;7.55;;;3.45;;
75649;SDS011;64245;51.282;22.494;2024-03-25T08:28:58;6.65;;;3.10;;
75649;SDS011;64245;51.282;22.494;2024-03-25T08:31:25;5.03;;;3.45;;
75649;SDS011;64245;51.282;22.494;2024-03-25T08:33:50;5.43;;;3.03;;
75649;SDS011;64245;51.282;22.494;2024-03-25T08:36:17;7.55;;;3.22;;
75649;SDS011;64245;51.282;22.494;2024-03-25T08:38:43;4.15;;;2.90;;
75649;SDS011;64245;51.282;22.494;2024-03-25T08:41:10;5.53;;;3.30;;
75649;SDS011;64245;51.282;22.494;2024-03-25T08:43:36;5.47;;;3.08;;
75649;SDS011;64245;51.282;22.494;2024-03-25T08:46:02;4.30;;;2.63;;
75649;SDS011;64245;51.282;22.494;2024-03-25T08:48:29;4.75;;;2.78;;
75649;SDS011;64245;51.282;22.494;2024-03-25T08:50:55;3.10;;;2.03;;
75649;SDS011;64245;51.282;22.494;2024-03-25T08:53:21;6.25;;;2.92;;
75649;SDS011;64245;51.282;22.494;2024-03-25T08:55:47;3.17;;;1.77;;
75649;SDS011;64245;51.282;22.494;2024-03-25T08:58:14;2.70;;;2.00;;
75649;SDS011;64245;51.282;22.494;2024-03-25T09:00:41;4.25;;;2.13;;
75649;SDS011;64245;51.282;22.494;2024-03-25T09:03:07;4.18;;;2.10;;
75649;SDS011;64245;51.282;22.494;2024-03-25T09:05:34;3.83;;;1.60;;
75649;SDS011;64245;51.282;22.494;2024-03-25T09:08:00;2.58;;;1.80;;
75649;SDS011;64245;51.282;22.494;2024-03-25T09:10:27;3.72;;;2.28;;
75649;SDS011;64245;51.282;22.494;2024-03-25T09:13:12;1.95;;;1.50;;
75649;SDS011;64245;51.282;22.494;2024-03-25T09:15:39;3.70;;;2.75;;
75649;SDS011;64245;51.282;22.494;2024-03-25T09:18:04;3.00;;;1.42;;
75649;SDS011;64245;51.282;22.494;2024-03-25T09:20:31;3.65;;;2.35;;
75649;SDS011;64245;51.282;22.494;2024-03-25T09:22:57;2.42;;;1.92;;
75649;SDS011;64245;51.282;22.494;2024-03-25T09:25:23;4.43;;;2.42;;
75649;SDS011;64245;51.282;22.494;2024-03-25T09:27:50;1.45;;;1.23;;
75649;SDS011;64245;51.282;22.494;2024-03-25T09:30:17;1.73;;;1.40;;
75649;SDS011;64245;51.282;22.494;2024-03-25T09:32:45;3.15;;;1.73;;
75649;SDS011;64245;51.282;22.494;2024-03-25T09:35:12;3.83;;;1.42;;
75649;SDS011;64245;51.282;22.494;2024-03-25T09:37:38;4.03;;;1.77;;
75649;SDS011;64245;51.282;22.494;2024-03-25T09:40:04;2.30;;;1.30;;
75649;SDS011;64245;51.282;22.494;2024-03-25T09:42:36;3.78;;;1.60;;
75649;SDS011;64245;51.282;22.494;2024-03-25T09:47:37;6.13;;;1.50;;
75649;SDS011;64245;51.282;22.494;2024-03-25T09:50:08;2.65;;;1.95;;
75649;SDS011;64245;51.282;22.494;2024-03-25T09:52:37;2.67;;;2.00;;
75649;SDS011;64245;51.282;22.494;2024-03-25T09:55:04;1.92;;;1.05;;
75649;SDS011;64245;51.282;22.494;2024-03-25T09:57:30;2.38;;;1.33;;
75649;SDS011;64245;51.282;22.494;2024-03-25T09:59:56;2.05;;;1.70;;
75649;SDS011;64245;51.282;22.494;2024-03-25T10:02:22;1.75;;;1.20;;
75649;SDS011;64245;51.282;22.494;2024-03-25T10:04:52;2.60;;;1.27;;
75649;SDS011;64245;51.282;22.494;2024-03-25T10:07:24;1.05;;;0.73;;
75649;SDS011;64245;51.282;22.494;2024-03-25T10:09:53;3.65;;;1.92;;
75649;SDS011;64245;51.282;22.494;2024-03-25T10:12:19;1.92;;;1.48;;
75649;SDS011;64245;51.282;22.494;2024-03-25T10:14:46;2.85;;;2.00;;
75649;SDS011;64245;51.282;22.494;2024-03-25T10:17:12;3.55;;;2.25;;
75649;SDS011;64245;51.282;22.494;2024-03-25T10:19:38;3.47;;;1.88;;
75649;SDS011;64245;51.282;22.494;2024-03-25T10:22:04;2.35;;;1.60;;
75649;SDS011;64245;51.282;22.494;2024-03-25T10:24:41;2.10;;;1.38;;
75649;SDS011;64245;51.282;22.494;2024-03-25T10:27:17;2.50;;;1.70;;
75649;SDS011;64245;51.282;22.494;2024-03-25T10:29:47;2.25;;;1.67;;
75649;SDS011;64245;51.282;22.494;2024-03-25T10:32:17;1.85;;;1.60;;
75649;SDS011;64245;51.282;22.494;2024-03-25T10:34:43;1.60;;;1.50;;
75649;SDS011;64245;51.282;22.494;2024-03-25T10:37:09;2.75;;;1.55;;
75649;SDS011;64245;51.282;22.494;2024-03-25T10:39:39;2.20;;;1.50;;
75649;SDS011;64245;51.282;22.494;2024-03-25T10:42:13;3.40;;;1.95;;
75649;SDS011;64245;51.282;22.494;2024-03-25T10:44:40;3.88;;;1.65;;
75649;SDS011;64245;51.282;22.494;2024-03-25T10:47:07;2.10;;;1.80;;
75649;SDS011;64245;51.282;22.494;2024-03-25T10:49:38;2.65;;;1.60;;
75649;SDS011;64245;51.282;22.494;2024-03-25T10:52:17;4.43;;;1.98;;
75649;SDS011;64245;51.282;22.494;2024-03-25T10:54:46;2.88;;;1.55;;
75649;SDS011;64245;51.282;22.494;2024-03-25T10:57:13;6.28;;;1.52;;
75649;SDS011;64245;51.282;22.494;2024-03-25T10:59:43;2.70;;;1.90;;
75649;SDS011;64245;51.282;22.494;2024-03-25T11:02:10;3.10;;;1.90;;
75649;SDS011;64245;51.282;22.494;2024-03-25T11:04:37;3.88;;;2.45;;
75649;SDS011;64245;51.282;22.494;2024-03-25T11:07:11;3.05;;;1.55;;
75649;SDS011;64245;51.282;22.494;2024-03-25T11:09:38;3.05;;;1.73;;
75649;SDS011;64245;51.282;22.494;2024-03-25T11:12:05;4.35;;;2.40;;
75649;SDS011;64245;51.282;22.494;2024-03-25T11:14:32;3.17;;;1.85;;
75649;SDS011;64245;51.282;22.494;2024-03-25T11:16:59;3.08;;;1.85;;
75649;SDS011;64245;51.282;22.494;2024-03-25T11:19:26;2.88;;;1.90;;
75649;SDS011;64245;51.282;22.494;2024-03-25T11:21:53;4.63;;;2.00;;
75649;SDS011;64245;51.282;22.494;2024-03-25T11:24:29;4.07;;;1.83;;
75649;SDS011;64245;51.282;22.494;2024-03-25T11:26:56;3.40;;;1.90;;
75649;SDS011;64245;51.282;22.494;2024-03-25T11:29:22;3.65;;;1.83;;
75649;SDS011;64245;51.282;22.494;2024-03-25T11:31:51;1.80;;;1.27;;
75649;SDS011;64245;51.282;22.494;2024-03-25T11:34:19;3.58;;;1.80;;
75649;SDS011;64245;51.282;22.494;2024-03-25T11:36:46;1.48;;;1.15;;
75649;SDS011;64245;51.282;22.494;2024-03-25T11:39:14;1.75;;;1.42;;
75649;SDS011;64245;51.282;22.494;2024-03-25T11:41:40;3.40;;;1.60;;
75649;SDS011;64245;51.282;22.494;2024-03-25T11:44:10;3.65;;;2.13;;
75649;SDS011;64245;51.282;22.494;2024-03-25T11:46:38;2.10;;;1.20;;
75649;SDS011;64245;51.282;22.494;2024-03-25T11:49:05;4.35;;;1.85;;
75649;SDS011;64245;51.282;22.494;2024-03-25T11:51:33;2.40;;;1.65;;
75649;SDS011;64245;51.282;22.494;2024-03-25T11:54:02;2.80;;;1.33;;
75649;SDS011;64245;51.282;22.494;2024-03-25T11:56:30;2.97;;;1.73;;
75649;SDS011;64245;51.282;22.494;2024-03-25T11:58:57;2.83;;;1.30;;
75649;SDS011;64245;51.282;22.494;2024-03-25T12:01:25;1.70;;;1.30;;
75649;SDS011;64245;51.282;22.494;2024-03-25T12:03:52;1.25;;;0.90;;
75649;SDS011;64245;51.282;22.494;2024-03-25T12:06:18;0.85;;;0.82;;
75649;SDS011;64245;51.282;22.494;2024-03-25T12:08:44;1.05;;;0.90;;
75649;SDS011;64245;51.282;22.494;2024-03-25T12:11:29;0.95;;;0.77;;
75649;SDS011;64245;51.282;22.494;2024-03-25T12:13:55;1.70;;;1.50;;
75649;SDS011;64245;51.282;22.494;2024-03-25T12:16:22;1.25;;;0.35;;
75649;SDS011;64245;51.282;22.494;2024-03-25T12:18:49;0.60;;;0.52;;
75649;SDS011;64245;51.282;22.494;2024-03-25T12:21:15;0.50;;;0.50;;
75649;SDS011;64245;51.282;22.494;2024-03-25T12:23:42;1.05;;;1.05;;
75649;SDS011;64245;51.282;22.494;2024-03-25T12:26:11;0.43;;;0.30;;
75649;SDS011;64245;51.282;22.494;2024-03-25T12:28:37;1.52;;;1.05;;
75649;SDS011;64245;51.282;22.494;2024-03-25T12:31:06;0.65;;;0.43;;
75649;SDS011;64245;51.282;22.494;2024-03-25T12:33:40;1.10;;;0.68;;
75649;SDS011;64245;51.282;22.494;2024-03-25T12:36:13;0.82;;;0.60;;
75649;SDS011;64245;51.282;22.494;2024-03-25T12:38:39;1.00;;;0.57;;
75649;SDS011;64245;51.282;22.494;2024-03-25T12:43:43;1.52;;;1.00;;
75649;SDS011;64245;51.282;22.494;2024-03-25T12:46:10;1.88;;;0.60;;
75649;SDS011;64245;51.282;22.494;2024-03-25T12:48:37;1.13;;;0.85;;
75649;SDS011;64245;51.282;22.494;2024-03-25T12:51:03;1.45;;;0.80;;
75649;SDS011;64245;51.282;22.494;2024-03-25T12:53:30;0.60;;;0.60;;
75649;SDS011;64245;51.282;22.494;2024-03-25T12:55:56;2.10;;;0.85;;
75649;SDS011;64245;51.282;22.494;2024-03-25T12:58:22;0.95;;;0.88;;
75649;SDS011;64245;51.282;22.494;2024-03-25T13:00:48;2.08;;;0.82;;
75649;SDS011;64245;51.282;22.494;2024-03-25T13:03:15;1.30;;;0.80;;
75649;SDS011;64245;51.282;22.494;2024-03-25T13:05:43;2.10;;;0.80;;
75649;SDS011;64245;51.282;22.494;2024-03-25T13:08:09;1.48;;;0.85;;
75649;SDS011;64245;51.282;22.494;2024-03-25T13:10:35;1.65;;;0.93;;
75649;SDS011;64245;51.282;22.494;2024-03-25T13:13:02;0.75;;;0.60;;
75649;SDS011;64245;51.282;22.494;2024-03-25T13:15:28;0.70;;;0.50;;
75649;SDS011;64245;51.282;22.494;2024-03-25T13:17:54;0.65;;;0.60;;
75649;SDS011;64245;51.282;22.494;2024-03-25T13:20:20;0.98;;;0.55;;
75649;SDS011;64245;51.282;22.494;2024-03-25T13:22:46;2.33;;;0.65;;
75649;SDS011;64245;51.282;22.494;2024-03-25T13:25:14;0.73;;;0.60;;
75649;SDS011;64245;51.282;22.494;2024-03-25T13:27:41;1.50;;;0.70;;
75649;SDS011;64245;51.282;22.494;2024-03-25T13:30:07;3.13;;;1.10;;
75649;SDS011;64245;51.282;22.494;2024-03-25T13:32:33;0.57;;;0.47;;
75649;SDS011;64245;51.282;22.494;2024-03-25T13:34:59;1.20;;;0.75;;
75649;SDS011;64245;51.282;22.494;2024-03-25T13:37:27;1.05;;;0.75;;
75649;SDS011;64245;51.282;22.494;2024-03-25T13:39:53;1.02;;;0.88;;
75649;SDS011;64245;51.282;22.494;2024-03-25T13:42:19;3.15;;;0.90;;
75649;SDS011;64245;51.282;22.494;2024-03-25T13:44:44;1.02;;;0.85;;
75649;SDS011;64245;51.282;22.494;2024-03-25T13:47:11;1.52;;;0.90;;
75649;SDS011;64245;51.282;22.494;2024-03-25T13:49:37;1.48;;;0.90;;
75649;SDS011;64245;51.282;22.494;2024-03-25T13:52:03;1.08;;;0.88;;
75649;SDS011;64245;51.282;22.494;2024-03-25T13:54:29;1.05;;;0.82;;
75649;SDS011;64245;51.282;22.494;2024-03-25T13:56:56;1.40;;;1.13;;
75649;SDS011;64245;51.282;22.494;2024-03-25T13:59:22;0.80;;;0.80;;
75649;SDS011;64245;51.282;22.494;2024-03-25T14:01:48;0.95;;;0.88;;
75649;SDS011;64245;51.282;22.494;2024-03-25T14:04:14;2.80;;;1.20;;
75649;SDS011;64245;51.282;22.494;2024-03-25T14:06:41;2.38;;;0.95;;
75649;SDS011;64245;51.282;22.494;2024-03-25T14:09:07;1.95;;;1.05;;
75649;SDS011;64245;51.282;22.494;2024-03-25T14:11:36;2.53;;;1.08;;
75649;SDS011;64245;51.282;22.494;2024-03-25T14:14:02;2.67;;;1.73;;
75649;SDS011;64245;51.282;22.494;2024-03-25T14:16:28;1.50;;;0.88;;
75649;SDS011;64245;51.282;22.494;2024-03-25T14:18:54;1.75;;;1.02;;
75649;SDS011;64245;51.282;22.494;2024-03-25T14:21:20;2.17;;;1.13;;
75649;SDS011;64245;51.282;22.494;2024-03-25T14:23:46;1.13;;;1.02;;
75649;SDS011;64245;51.282;22.494;2024-03-25T14:26:13;1.23;;;1.00;;
75649;SDS011;64245;51.282;22.494;2024-03-25T14:28:42;1.67;;;0.80;;
75649;SDS011;64245;51.282;22.494;2024-03-25T14:31:08;1.42;;;0.77;;
75649;SDS011;64245;51.282;22.494;2024-03-25T14:33:34;1.10;;;1.00;;
75649;SDS011;64245;51.282;22.494;2024-03-25T14:36:00;1.48;;;0.98;;
75649;SDS011;64245;51.282;22.494;2024-03-25T14:38:26;2.25;;;0.98;;
75649;SDS011;64245;51.282;22.494;2024-03-25T14:40:52;1.30;;;0.90;;